createdAt,value
2023-05-04T00:01:24.443Z,85.15
2023-05-04T00:04:01.364Z,85.28
2023-05-04T00:06:37.912Z,85.30
2023-05-04T00:09:16.381Z,85.30
2023-05-04T00:11:52.701Z,85.27
2023-05-04T00:14:29.013Z,85.22
2023-05-04T00:17:06.941Z,85.23
2023-05-04T00:19:44.873Z,85.23
2023-05-04T00:22:21.268Z,85.23
2023-05-04T00:24:57.550Z,85.14
2023-05-04T00:27:35.113Z,85.10
2023-05-04T00:30:14.316Z,85.02
2023-05-04T00:32:50.872Z,84.86
2023-05-04T00:35:27.497Z,84.53
2023-05-04T00:38:05.934Z,84.26
2023-05-04T00:40:42.602Z,84.02
2023-05-04T00:43:18.911Z,83.90
2023-05-04T00:45:55.641Z,83.69
2023-05-04T00:48:32.193Z,83.38
2023-05-04T00:51:12.037Z,82.68
2023-05-04T00:53:49.118Z,82.07
2023-05-04T00:56:28.999Z,81.82
2023-05-04T00:59:05.501Z,81.43
2023-05-04T01:01:42.024Z,81.15
2023-05-04T01:04:19.432Z,80.73
2023-05-04T01:07:12.739Z,80.69
2023-05-04T01:09:55.556Z,80.50
2023-05-04T01:12:40.186Z,80.21
2023-05-04T01:15:17.396Z,80.13
2023-05-04T01:17:53.868Z,80.11
2023-05-04T01:20:30.773Z,80.06
2023-05-04T01:23:07.909Z,79.81
2023-05-04T01:25:58.739Z,80.01
2023-05-04T01:28:50.010Z,79.93
2023-05-04T01:31:30.818Z,79.95
2023-05-04T01:34:08.612Z,79.95
2023-05-04T01:36:46.748Z,79.92
2023-05-04T01:39:23.239Z,79.89
2023-05-04T01:41:59.669Z,79.77
2023-05-04T01:44:35.956Z,79.82
2023-05-04T01:47:12.596Z,79.67
2023-05-04T01:49:48.807Z,79.56
2023-05-04T01:52:25.686Z,79.64
2023-05-04T01:55:02.143Z,79.59
2023-05-04T01:57:38.499Z,79.61
2023-05-04T02:00:18.335Z,79.59
2023-05-04T02:02:54.741Z,79.55
2023-05-04T02:05:31.370Z,79.49
2023-05-04T02:08:08.018Z,79.44
2023-05-04T02:10:44.928Z,79.58
2023-05-04T02:13:21.928Z,79.76
2023-05-04T02:15:58.308Z,79.58
2023-05-04T02:18:34.757Z,79.65
2023-05-04T02:21:11.339Z,79.71
2023-05-04T02:23:47.919Z,79.58
2023-05-04T02:26:24.382Z,79.51
2023-05-04T02:29:02.597Z,79.70
2023-05-04T02:31:38.871Z,79.56
2023-05-04T02:34:16.628Z,79.44
2023-05-04T02:36:56.524Z,79.50
2023-05-04T02:39:32.854Z,79.62
2023-05-04T02:42:09.312Z,79.70
2023-05-04T02:44:45.799Z,79.70
2023-05-04T02:47:22.347Z,79.66
2023-05-04T02:49:58.626Z,79.73
2023-05-04T02:52:35.029Z,79.83
2023-05-04T02:55:13.055Z,79.87
2023-05-04T02:57:49.672Z,80.00
2023-05-04T03:00:27.524Z,80.04
2023-05-04T03:03:03.836Z,79.97
2023-05-04T03:05:40.219Z,79.78
2023-05-04T03:08:17.074Z,79.72
2023-05-04T03:10:53.385Z,79.70
2023-05-04T03:13:29.910Z,79.76
2023-05-04T03:16:07.720Z,79.80
2023-05-04T03:18:44.187Z,79.75
2023-05-04T03:21:20.547Z,79.78
2023-05-04T03:23:57.634Z,79.74
2023-05-04T03:26:33.800Z,79.88
2023-05-04T03:29:10.689Z,80.05
2023-05-04T03:31:48.050Z,80.12
2023-05-04T03:34:24.765Z,80.13
2023-05-04T03:37:03.751Z,80.14
2023-05-04T03:39:41.394Z,80.19
2023-05-04T03:42:18.785Z,80.20
2023-05-04T03:44:56.346Z,80.17
2023-05-04T03:47:34.231Z,79.86
2023-05-04T03:50:13.443Z,79.64
2023-05-04T03:52:50.251Z,78.81
2023-05-04T03:55:27.495Z,77.70
2023-05-04T03:58:03.845Z,76.77
2023-05-04T04:00:41.746Z,75.68
2023-05-04T04:03:21.025Z,74.66
2023-05-04T04:05:57.718Z,73.65
2023-05-04T04:08:35.441Z,72.79
2023-05-04T04:11:12.388Z,71.61
2023-05-04T04:13:48.846Z,70.50
2023-05-04T04:16:26.376Z,69.38
2023-05-04T04:19:02.993Z,67.98
2023-05-04T04:21:39.652Z,66.73
2023-05-04T04:24:16.251Z,64.92
2023-05-04T04:26:53.440Z,63.43
2023-05-04T04:29:29.876Z,61.95
2023-05-04T04:32:06.880Z,61.02
2023-05-04T04:34:43.514Z,60.78
2023-05-04T04:37:19.816Z,59.82
2023-05-04T04:39:56.089Z,58.41
2023-05-04T04:42:32.484Z,57.84
2023-05-04T04:45:11.149Z,56.63
2023-05-04T04:47:47.940Z,55.09
2023-05-04T04:50:24.408Z,53.35
2023-05-04T04:53:01.181Z,53.03
2023-05-04T04:55:37.468Z,52.61
2023-05-04T04:58:13.930Z,51.99
2023-05-04T05:00:52.368Z,50.79
2023-05-04T05:03:29.010Z,49.91
2023-05-04T05:06:05.653Z,48.50
2023-05-04T05:08:42.740Z,48.12
2023-05-04T05:11:19.040Z,46.79
2023-05-04T05:13:55.320Z,46.99
2023-05-04T05:16:32.032Z,45.88
2023-05-04T05:19:08.855Z,45.87
2023-05-04T05:21:45.672Z,45.30
2023-05-04T05:24:22.998Z,45.05
2023-05-04T05:26:59.690Z,45.27
2023-05-04T05:29:37.291Z,44.77
2023-05-04T05:32:14.134Z,43.80
2023-05-04T05:34:50.631Z,43.13
2023-05-04T05:37:27.727Z,41.91
2023-05-04T05:40:06.465Z,41.98
2023-05-04T05:42:43.466Z,41.96
2023-05-04T05:45:20.485Z,41.36
2023-05-04T05:47:57.230Z,39.99
2023-05-04T05:50:33.837Z,40.44
2023-05-04T05:53:10.310Z,39.86
2023-05-04T05:55:47.406Z,39.30
2023-05-04T05:58:30.817Z,39.52
2023-05-04T06:01:07.502Z,39.94
2023-05-04T06:03:44.330Z,39.40
2023-05-04T06:06:21.116Z,38.57
2023-05-04T06:08:58.264Z,38.66
2023-05-04T06:11:34.879Z,38.99
2023-05-04T06:14:12.117Z,38.56
2023-05-04T06:16:49.288Z,37.95
2023-05-04T06:19:27.025Z,38.46
2023-05-04T06:22:05.289Z,38.44
2023-05-04T06:24:42.048Z,38.25
2023-05-04T06:27:19.127Z,38.71
2023-05-04T06:29:55.799Z,38.56
2023-05-04T06:32:32.530Z,37.95
2023-05-04T06:35:10.813Z,37.31
2023-05-04T06:37:47.596Z,38.04
2023-05-04T06:40:25.570Z,38.43
2023-05-04T06:43:02.391Z,38.05
2023-05-04T06:45:40.761Z,37.39
2023-05-04T06:48:18.557Z,36.83
2023-05-04T06:50:55.272Z,37.01
2023-05-04T06:53:31.549Z,36.36
2023-05-04T06:56:09.273Z,37.01
2023-05-04T06:58:46.171Z,37.51
2023-05-04T07:01:22.533Z,37.87
2023-05-04T07:03:59.611Z,38.02
2023-05-04T07:06:36.746Z,37.23
2023-05-04T07:09:13.165Z,37.91
2023-05-04T07:11:49.805Z,38.26
2023-05-04T07:14:26.400Z,37.95
2023-05-04T07:17:04.307Z,37.60
2023-05-04T07:19:40.979Z,38.00
2023-05-04T07:22:17.344Z,37.82
2023-05-04T07:24:53.709Z,39.21
2023-05-04T07:27:30.397Z,38.85
2023-05-04T07:30:10.135Z,38.02
2023-05-04T07:32:46.593Z,38.63
2023-05-04T07:35:24.061Z,39.52
2023-05-04T07:38:01.174Z,39.27
2023-05-04T07:40:37.944Z,40.16
2023-05-04T07:43:14.206Z,39.86
2023-05-04T07:45:51.316Z,40.13
2023-05-04T07:48:28.019Z,40.71
2023-05-04T07:51:04.601Z,40.39
2023-05-04T07:53:41.005Z,40.04
2023-05-04T07:56:18.701Z,40.00
2023-05-04T07:58:55.087Z,41.09
2023-05-04T08:01:31.555Z,41.25
2023-05-04T08:04:08.614Z,41.11
2023-05-04T08:06:45.666Z,41.41
2023-05-04T08:09:22.272Z,41.68
2023-05-04T08:11:58.546Z,42.73
2023-05-04T08:14:37.467Z,42.07
2023-05-04T08:17:14.790Z,40.98
2023-05-04T08:19:51.316Z,39.93
2023-05-04T08:22:27.786Z,39.87
2023-05-04T08:25:05.020Z,39.84
2023-05-04T08:27:41.750Z,40.55
2023-05-04T08:30:19.921Z,40.02
2023-05-04T08:32:56.632Z,39.11
2023-05-04T08:35:33.109Z,40.07
2023-05-04T08:38:10.486Z,39.92
2023-05-04T08:40:50.415Z,39.48
2023-05-04T08:43:27.441Z,40.71
2023-05-04T08:46:05.090Z,42.62
2023-05-04T08:48:43.224Z,41.80
2023-05-04T08:51:21.326Z,42.11
2023-05-04T08:53:59.926Z,41.69
2023-05-04T08:56:37.346Z,42.42
2023-05-04T08:59:20.348Z,43.43
2023-05-04T09:02:01.733Z,45.16
2023-05-04T09:04:38.404Z,44.03
2023-05-04T09:07:14.753Z,45.29
2023-05-04T09:09:52.532Z,45.79
2023-05-04T09:12:31.506Z,43.31
2023-05-04T09:15:19.452Z,44.48
2023-05-04T09:18:07.779Z,45.72
2023-05-04T09:20:51.185Z,45.53
2023-05-04T09:23:27.650Z,44.91
2023-05-04T09:26:06.172Z,45.20
2023-05-04T09:28:43.676Z,45.50
2023-05-04T09:31:20.390Z,45.62
2023-05-04T09:33:57.082Z,45.95
2023-05-04T09:36:33.704Z,45.15
2023-05-04T09:39:18.359Z,45.12
2023-05-04T09:41:54.812Z,44.59
2023-05-04T09:44:31.379Z,46.82
2023-05-04T09:47:09.708Z,47.18
2023-05-04T09:49:46.055Z,48.69
2023-05-04T09:52:22.930Z,47.34
2023-05-04T09:55:00.890Z,47.19
2023-05-04T09:57:37.613Z,47.36
2023-05-04T10:00:20.837Z,47.48
2023-05-04T10:02:58.551Z,46.84
2023-05-04T10:05:35.089Z,47.49
2023-05-04T10:08:13.614Z,47.72
2023-05-04T10:10:51.407Z,48.47
2023-05-04T10:13:28.188Z,48.94
2023-05-04T10:16:21.394Z,48.97
2023-05-04T10:19:33.047Z,49.67
2023-05-04T10:22:35.517Z,49.66
2023-05-04T10:26:08.088Z,48.15
2023-05-04T10:29:23.912Z,49.76
2023-05-04T10:32:00.862Z,47.94
2023-05-04T10:34:38.153Z,48.34
2023-05-04T10:37:23.090Z,48.10
2023-05-04T10:40:00.150Z,48.00
2023-05-04T10:42:45.678Z,47.72
2023-05-04T10:45:22.471Z,46.17
2023-05-04T10:48:03.732Z,47.64
2023-05-04T10:50:50.353Z,48.61
2023-05-04T10:53:35.815Z,47.73
2023-05-04T10:56:23.058Z,48.20
2023-05-04T10:59:09.086Z,47.05
2023-05-04T11:01:49.744Z,46.20
2023-05-04T11:04:27.884Z,44.55
2023-05-04T11:07:08.788Z,44.86
2023-05-04T11:09:46.528Z,46.13
2023-05-04T11:12:22.793Z,46.52
2023-05-04T11:15:12.368Z,45.79
2023-05-04T11:17:55.717Z,45.27
2023-05-04T11:20:32.738Z,46.54
2023-05-04T11:23:22.923Z,45.77
2023-05-04T11:26:12.504Z,45.62
2023-05-04T11:28:51.344Z,43.60
2023-05-04T11:31:28.069Z,43.77
2023-05-04T11:34:04.488Z,44.27
2023-05-04T11:36:44.610Z,45.14
2023-05-04T11:39:21.403Z,44.74
2023-05-04T11:41:58.155Z,44.87
2023-05-04T11:44:35.415Z,43.88
2023-05-04T11:47:13.003Z,44.36
2023-05-04T11:49:50.656Z,43.78
2023-05-04T11:52:30.812Z,45.23
2023-05-04T11:55:09.743Z,45.40
2023-05-04T11:57:46.114Z,45.05
2023-05-04T12:00:35.164Z,45.10
2023-05-04T12:03:14.176Z,44.97
2023-05-04T12:05:56.197Z,44.23
2023-05-04T12:08:35.253Z,45.09
2023-05-04T12:11:25.671Z,45.76
2023-05-04T12:14:10.880Z,45.97
2023-05-04T12:17:02.066Z,43.90
2023-05-04T12:19:47.844Z,45.27
2023-05-04T12:22:32.957Z,45.01
2023-05-04T12:25:11.629Z,44.15
2023-05-04T12:27:48.290Z,44.25
2023-05-04T12:30:24.925Z,43.95
2023-05-04T12:33:01.508Z,44.80
2023-05-04T12:35:37.957Z,43.28
2023-05-04T12:38:14.811Z,43.82
2023-05-04T12:40:51.260Z,44.82
2023-05-04T12:43:27.736Z,44.24
2023-05-04T12:46:04.674Z,42.30
2023-05-04T12:48:41.079Z,42.92
2023-05-04T12:51:17.446Z,43.27
2023-05-04T12:53:53.806Z,44.07
2023-05-04T12:56:30.375Z,43.85
2023-05-04T12:59:06.851Z,43.78
2023-05-04T13:01:44.768Z,43.32
2023-05-04T13:04:22.035Z,45.71
2023-05-04T13:06:58.707Z,43.05
2023-05-04T13:09:35.540Z,43.67
2023-05-04T13:12:12.470Z,44.97
2023-05-04T13:14:48.958Z,44.60
2023-05-04T13:17:25.431Z,45.37
2023-05-04T13:20:01.768Z,45.54
2023-05-04T13:22:38.534Z,44.62
2023-05-04T13:25:15.669Z,45.31
2023-05-04T13:27:52.044Z,44.69
2023-05-04T13:30:29.353Z,44.70
2023-05-04T13:33:16.713Z,45.12
2023-05-04T13:35:58.601Z,45.87
2023-05-04T13:38:35.351Z,45.62
2023-05-04T13:41:11.945Z,45.83
2023-05-04T13:43:49.342Z,44.07
2023-05-04T13:46:25.853Z,44.36
2023-05-04T13:49:15.682Z,44.93
2023-05-04T13:51:54.469Z,44.36
2023-05-04T13:54:36.134Z,44.80
2023-05-04T13:57:13.241Z,45.56
2023-05-04T14:00:02.863Z,45.65
2023-05-04T14:02:47.250Z,45.49
2023-05-04T14:05:24.706Z,44.80
2023-05-04T14:08:01.748Z,44.88
2023-05-04T14:10:38.750Z,45.34
2023-05-04T14:13:16.043Z,45.73
2023-05-04T14:15:53.208Z,46.46
2023-05-04T14:18:32.263Z,44.96
2023-05-04T14:21:09.062Z,44.40
2023-05-04T14:23:46.398Z,44.83
2023-05-04T14:26:23.726Z,43.61
2023-05-04T14:29:00.567Z,44.30
2023-05-04T14:31:37.674Z,44.52
2023-05-04T14:34:14.409Z,45.10
2023-05-04T14:36:52.365Z,44.52
2023-05-04T14:39:29.617Z,43.76
2023-05-04T14:42:06.607Z,43.63
2023-05-04T14:44:43.533Z,43.71
2023-05-04T14:47:20.785Z,43.09
2023-05-04T14:49:58.033Z,44.65
2023-05-04T14:52:34.738Z,43.55
2023-05-04T14:55:13.404Z,43.75
2023-05-04T14:57:50.006Z,44.14
2023-05-04T15:00:27.320Z,44.06
2023-05-04T15:03:03.691Z,44.44
2023-05-04T15:05:40.130Z,43.73
2023-05-04T15:08:16.703Z,43.97
2023-05-04T15:10:53.365Z,43.23
2023-05-04T15:13:30.285Z,43.67
2023-05-04T15:16:07.772Z,43.97
2023-05-04T15:18:44.096Z,43.63
2023-05-04T15:21:20.443Z,42.42
2023-05-04T15:23:57.448Z,43.28
2023-05-04T15:26:34.706Z,43.02
2023-05-04T15:29:11.201Z,42.75
2023-05-04T15:31:47.619Z,43.00
2023-05-04T15:34:24.253Z,42.18
2023-05-04T15:37:00.816Z,42.41
2023-05-04T15:39:38.000Z,42.08
2023-05-04T15:42:14.259Z,42.17
2023-05-04T15:44:50.640Z,42.53
2023-05-04T15:47:27.341Z,42.77
2023-05-04T15:50:04.022Z,42.37
2023-05-04T15:52:40.145Z,42.07
2023-05-04T15:55:24.655Z,42.59
2023-05-04T15:58:02.391Z,42.93
2023-05-04T16:00:39.229Z,43.33
2023-05-04T16:03:15.736Z,43.51
2023-05-04T16:05:52.321Z,42.95
2023-05-04T16:08:29.210Z,43.67
2023-05-04T16:11:07.671Z,42.96
2023-05-04T16:13:44.142Z,42.45
2023-05-04T16:16:20.953Z,42.63
2023-05-04T16:18:57.285Z,42.58
2023-05-04T16:21:33.770Z,42.55
2023-05-04T16:24:13.598Z,42.33
2023-05-04T16:26:52.536Z,43.14
2023-05-04T16:29:29.002Z,43.69
2023-05-04T16:32:05.932Z,43.07
2023-05-04T16:34:42.567Z,43.02
2023-05-04T16:37:19.016Z,42.87
2023-05-04T16:39:56.718Z,42.86
2023-05-04T16:42:33.094Z,43.29
2023-05-04T16:45:13.483Z,43.49
2023-05-04T16:47:49.996Z,43.02
2023-05-04T16:50:26.905Z,43.70
2023-05-04T16:53:03.884Z,44.14
2023-05-04T16:55:41.927Z,43.68
2023-05-04T16:58:18.913Z,43.77
2023-05-04T17:00:55.707Z,43.70
2023-05-04T17:03:33.033Z,43.87
2023-05-04T17:06:10.743Z,44.02
2023-05-04T17:08:47.702Z,44.64
2023-05-04T17:11:24.380Z,44.97
2023-05-04T17:14:01.515Z,44.53
2023-05-04T17:16:38.253Z,44.25
2023-05-04T17:19:15.114Z,44.21
2023-05-04T17:21:52.417Z,44.71
2023-05-04T17:24:29.444Z,44.60
2023-05-04T17:27:06.453Z,44.60
2023-05-04T17:29:44.233Z,44.92
2023-05-04T17:32:21.426Z,45.09
2023-05-04T17:35:05.617Z,45.49
2023-05-04T17:37:49.327Z,46.18
2023-05-04T17:40:26.276Z,46.31
2023-05-04T17:43:03.010Z,46.39
2023-05-04T17:45:40.240Z,46.36
2023-05-04T17:48:17.550Z,46.66
2023-05-04T17:50:54.371Z,47.67
2023-05-04T17:53:33.307Z,47.69
2023-05-04T17:56:10.728Z,47.79
2023-05-04T17:58:47.826Z,48.77
2023-05-04T18:01:24.722Z,48.96
2023-05-04T18:04:03.270Z,50.45
2023-05-04T18:06:40.594Z,50.18
2023-05-04T18:09:17.263Z,50.72
2023-05-04T18:11:54.663Z,51.67
2023-05-04T18:14:32.080Z,51.56
2023-05-04T18:17:09.108Z,53.25
2023-05-04T18:19:46.133Z,53.88
2023-05-04T18:22:22.887Z,54.20
2023-05-04T18:24:59.739Z,55.55
2023-05-04T18:27:39.013Z,56.33
2023-05-04T18:30:17.650Z,57.03
2023-05-04T18:33:02.112Z,57.30
2023-05-04T18:35:42.481Z,57.72
2023-05-04T18:38:20.203Z,58.19
2023-05-04T18:41:01.186Z,59.03
2023-05-04T18:43:39.479Z,59.55
2023-05-04T18:46:22.921Z,60.51
2023-05-04T18:49:02.843Z,61.31
2023-05-04T18:51:44.084Z,61.84
2023-05-04T18:54:25.365Z,62.37
2023-05-04T18:57:05.506Z,63.09
2023-05-04T18:59:48.248Z,64.23
2023-05-04T19:02:35.095Z,64.76
2023-05-04T19:05:14.680Z,65.15
2023-05-04T19:07:53.791Z,65.53
2023-05-04T19:10:34.090Z,66.11
2023-05-04T19:13:15.936Z,66.62
2023-05-04T19:15:56.567Z,67.18
2023-05-04T19:18:39.182Z,67.54
2023-05-04T19:21:22.785Z,67.74
2023-05-04T19:24:00.180Z,67.91
2023-05-04T19:26:39.893Z,67.94
2023-05-04T19:29:19.752Z,67.97
2023-05-04T19:32:11.999Z,68.14
2023-05-04T19:34:55.573Z,68.73
2023-05-04T19:37:36.237Z,68.96
2023-05-04T19:40:18.945Z,68.95
2023-05-04T19:42:58.139Z,69.49
2023-05-04T19:45:41.049Z,69.45
2023-05-04T19:48:18.984Z,69.31
2023-05-04T19:50:58.783Z,69.21
2023-05-04T19:53:40.362Z,69.33
2023-05-04T19:56:19.251Z,69.63
2023-05-04T19:59:06.234Z,69.98
2023-05-04T20:01:48.499Z,70.17
2023-05-04T20:04:27.499Z,70.35
2023-05-04T20:07:15.913Z,70.60
2023-05-04T20:10:04.384Z,71.08
2023-05-04T20:12:43.094Z,71.06
2023-05-04T20:15:21.949Z,71.32
2023-05-04T20:18:01.636Z,71.42
2023-05-04T20:20:41.083Z,71.87
2023-05-04T20:23:20.423Z,71.99
2023-05-04T20:25:58.673Z,72.50
2023-05-04T20:28:40.851Z,72.61
2023-05-04T20:31:21.635Z,72.77
2023-05-04T20:34:00.008Z,72.72
2023-05-04T20:36:37.734Z,72.83
2023-05-04T20:39:17.693Z,73.04
2023-05-04T20:41:55.214Z,73.26
2023-05-04T20:44:33.051Z,73.14
2023-05-04T20:47:10.265Z,73.05
2023-05-04T20:49:47.326Z,73.00
2023-05-04T20:52:28.039Z,73.04
2023-05-04T20:55:07.501Z,73.15
2023-05-04T20:57:44.709Z,73.40
2023-05-04T21:00:24.580Z,73.81
2023-05-04T21:03:01.855Z,74.19
2023-05-04T21:05:41.262Z,74.28
2023-05-04T21:08:18.808Z,74.39
2023-05-04T21:10:56.704Z,74.48
2023-05-04T21:13:34.557Z,74.41
2023-05-04T21:16:12.794Z,74.50
2023-05-04T21:18:50.081Z,74.59
2023-05-04T21:21:28.289Z,74.59
2023-05-04T21:24:06.738Z,74.70
2023-05-04T21:26:45.168Z,74.88
2023-05-04T21:29:22.529Z,74.88
2023-05-04T21:32:00.268Z,74.81
2023-05-04T21:34:37.767Z,74.43
2023-05-04T21:37:15.078Z,74.38
2023-05-04T21:39:56.032Z,74.50
2023-05-04T21:42:32.822Z,74.72
2023-05-04T21:45:12.034Z,74.75
2023-05-04T21:47:48.783Z,74.75
2023-05-04T21:50:26.254Z,74.99
2023-05-04T21:53:02.865Z,74.70
2023-05-04T21:55:39.330Z,74.75
2023-05-04T21:58:17.339Z,75.13
2023-05-04T22:00:54.942Z,75.45
2023-05-04T22:03:32.514Z,75.51
2023-05-04T22:06:10.278Z,75.33
2023-05-04T22:08:46.796Z,75.21
2023-05-04T22:11:24.056Z,75.36
2023-05-04T22:14:01.471Z,75.56
2023-05-04T22:16:38.413Z,75.56
2023-05-04T22:19:14.697Z,75.71
2023-05-04T22:21:51.132Z,75.83
2023-05-04T22:24:27.826Z,75.88
2023-05-04T22:27:04.708Z,75.90
2023-05-04T22:29:42.013Z,75.56
2023-05-04T22:32:18.276Z,75.37
2023-05-04T22:34:54.558Z,75.10
2023-05-04T22:37:30.914Z,74.39
2023-05-04T22:40:10.378Z,74.23
2023-05-04T22:42:46.689Z,74.65
2023-05-04T22:45:23.793Z,74.82
2023-05-04T22:48:00.065Z,75.14
2023-05-04T22:50:36.652Z,74.84
2023-05-04T22:53:14.766Z,74.74
2023-05-04T22:55:51.833Z,74.15
2023-05-04T22:58:28.064Z,73.97
2023-05-04T23:01:08.919Z,73.87
2023-05-04T23:03:45.501Z,74.14
2023-05-04T23:06:22.646Z,74.69
2023-05-04T23:08:58.975Z,74.66
2023-05-04T23:11:35.441Z,74.05
2023-05-04T23:14:12.734Z,73.56
2023-05-04T23:16:49.298Z,73.94
2023-05-04T23:19:25.980Z,74.03
2023-05-04T23:22:02.962Z,74.17
2023-05-04T23:24:39.321Z,74.33
2023-05-04T23:27:15.519Z,74.61
2023-05-04T23:29:51.853Z,74.71
2023-05-04T23:32:28.111Z,75.10
2023-05-04T23:35:05.104Z,74.93
2023-05-04T23:37:41.662Z,75.23
2023-05-04T23:40:18.440Z,74.80
2023-05-04T23:42:56.086Z,75.29
2023-05-04T23:45:32.595Z,74.80
2023-05-04T23:48:09.853Z,74.84
2023-05-04T23:50:57.654Z,75.26
2023-05-04T23:53:35.450Z,75.07
2023-05-04T23:56:13.059Z,74.94
2023-05-04T23:58:49.335Z,75.29
